createdAt,value
2019-03-17T00:00:22.163Z,97439.64
2019-03-17T00:01:27.699Z,97439.77
2019-03-17T00:02:31.266Z,97433.69
2019-03-17T00:03:34.829Z,97437.56
2019-03-17T00:04:38.455Z,97440.25
2019-03-17T00:05:42.082Z,97440.70
2019-03-17T00:06:45.663Z,97440.05
2019-03-17T00:07:49.293Z,97443.09
2019-03-17T00:08:52.926Z,97445.11
2019-03-17T00:09:56.563Z,97446.69
2019-03-17T00:11:00.199Z,97443.14
2019-03-17T00:12:03.861Z,97439.34
2019-03-17T00:13:07.865Z,97443.77
2019-03-17T00:14:11.500Z,97445.28
2019-03-17T00:15:15.143Z,97439.94
2019-03-17T00:16:18.763Z,97442.97
2019-03-17T00:17:25.054Z,97440.47
2019-03-17T00:18:27.787Z,97444.25
2019-03-17T00:19:31.424Z,97439.94
2019-03-17T00:20:35.428Z,97441.63
2019-03-17T00:21:39.070Z,97445.33
2019-03-17T00:22:42.666Z,97448.57
2019-03-17T00:23:46.319Z,97441.28
2019-03-17T00:24:50.033Z,97437.89
2019-03-17T00:25:53.672Z,97444.42
2019-03-17T00:26:57.350Z,97442.19
2019-03-17T00:28:01.028Z,97446.02
2019-03-17T00:29:04.665Z,97447.78
2019-03-17T00:30:11.281Z,97444.28
2019-03-17T00:31:23.663Z,97444.17
2019-03-17T00:32:20.278Z,97446.00
2019-03-17T00:33:23.954Z,97446.30
2019-03-17T00:34:27.670Z,97440.16
2019-03-17T00:35:31.306Z,97443.78
2019-03-17T00:36:34.939Z,97444.71
2019-03-17T00:37:38.552Z,97439.58
2019-03-17T00:38:42.644Z,97448.78
2019-03-17T00:39:48.781Z,97445.28
2019-03-17T00:40:51.630Z,97450.47
2019-03-17T00:41:55.264Z,97451.95
2019-03-17T00:42:58.886Z,97453.19
2019-03-17T00:44:02.549Z,97456.03
2019-03-17T00:45:11.778Z,97460.33
2019-03-17T00:46:15.699Z,97454.99
2019-03-17T00:47:19.308Z,97455.64
2019-03-17T00:48:22.871Z,97455.64
2019-03-17T00:49:26.590Z,97451.89
2019-03-17T00:50:30.218Z,97449.22
2019-03-17T00:51:33.843Z,97450.66
2019-03-17T00:52:37.479Z,97435.10
2019-03-17T00:53:41.153Z,97448.78
2019-03-17T00:54:44.817Z,97443.51
2019-03-17T00:55:48.502Z,97443.17
2019-03-17T00:56:52.078Z,97442.22
2019-03-17T00:57:55.707Z,97445.44
2019-03-17T00:58:59.262Z,97447.94
2019-03-17T01:00:03.029Z,97447.84
2019-03-17T01:01:06.664Z,97453.14
2019-03-17T01:02:10.284Z,97448.84
2019-03-17T01:03:14.540Z,97452.49
2019-03-17T01:04:18.256Z,97452.10
2019-03-17T01:05:21.928Z,97444.82
2019-03-17T01:06:25.574Z,97451.49
2019-03-17T01:07:29.217Z,97448.20
2019-03-17T01:08:32.854Z,97450.13
2019-03-17T01:09:36.890Z,97455.32
2019-03-17T01:10:40.577Z,97455.34
2019-03-17T01:11:44.208Z,97459.88
2019-03-17T01:12:47.833Z,97458.38
2019-03-17T01:13:51.478Z,97455.91
2019-03-17T01:14:55.043Z,97460.17
2019-03-17T01:15:58.711Z,97457.06
2019-03-17T01:17:02.349Z,97458.30
2019-03-17T01:18:06.323Z,97464.84
2019-03-17T01:19:09.958Z,97461.29
2019-03-17T01:20:13.595Z,97456.46
2019-03-17T01:21:17.257Z,97463.86
2019-03-17T01:22:20.863Z,97456.36
2019-03-17T01:23:24.500Z,97458.42
2019-03-17T01:24:28.062Z,97454.67
2019-03-17T01:25:31.643Z,97451.41
2019-03-17T01:26:35.338Z,97450.52
2019-03-17T01:27:38.963Z,97451.06
2019-03-17T01:28:42.588Z,97452.61
2019-03-17T01:29:46.147Z,97451.20
2019-03-17T01:30:49.800Z,97454.13
2019-03-17T01:31:53.473Z,97457.21
2019-03-17T01:32:57.454Z,97461.03
2019-03-17T01:34:01.019Z,97460.39
2019-03-17T01:35:09.423Z,97460.30
2019-03-17T01:36:12.290Z,97462.08
2019-03-17T01:37:16.051Z,97469.39
2019-03-17T01:38:19.678Z,97464.30
2019-03-17T01:39:23.317Z,97469.67
2019-03-17T01:40:26.879Z,97474.53
2019-03-17T01:41:30.535Z,97471.16
2019-03-17T01:42:36.348Z,97472.69
2019-03-17T01:43:40.055Z,97473.52
2019-03-17T01:44:43.706Z,97476.33
2019-03-17T01:45:47.344Z,97471.28
2019-03-17T01:46:51.018Z,97464.36
2019-03-17T01:47:54.637Z,97468.59
2019-03-17T01:48:58.274Z,97472.28
2019-03-17T01:50:02.015Z,97474.40
2019-03-17T01:51:05.648Z,97468.28
2019-03-17T01:52:09.276Z,97464.73
2019-03-17T01:53:12.948Z,97460.64
2019-03-17T01:54:16.575Z,97461.13
2019-03-17T01:55:20.215Z,97459.53
2019-03-17T01:56:24.015Z,97458.20
2019-03-17T01:57:28.566Z,97462.28
2019-03-17T01:58:32.218Z,97461.25
2019-03-17T01:59:35.851Z,97463.45
2019-03-17T02:00:39.747Z,97458.73
2019-03-17T02:01:43.381Z,97461.94
2019-03-17T02:02:47.018Z,97462.09
2019-03-17T02:03:50.672Z,97457.95
2019-03-17T02:04:54.678Z,97463.20
2019-03-17T02:05:58.307Z,97466.09
2019-03-17T02:07:01.936Z,97463.56
2019-03-17T02:08:05.980Z,97471.54
2019-03-17T02:09:10.018Z,97473.38
2019-03-17T02:10:13.724Z,97470.91
2019-03-17T02:11:17.368Z,97466.38
2019-03-17T02:12:20.998Z,97480.30
2019-03-17T02:13:24.617Z,97475.16
2019-03-17T02:14:28.655Z,97476.91
2019-03-17T02:15:32.295Z,97478.52
2019-03-17T02:16:35.933Z,97474.09
2019-03-17T02:17:39.542Z,97477.27
2019-03-17T02:18:43.098Z,97480.85
2019-03-17T02:19:46.689Z,97483.13
2019-03-17T02:20:50.314Z,97476.61
2019-03-17T02:21:54.017Z,97471.73
2019-03-17T02:22:57.644Z,97479.11
2019-03-17T02:24:01.204Z,97474.88
2019-03-17T02:25:05.865Z,97469.55
2019-03-17T02:26:09.494Z,97469.30
2019-03-17T02:27:13.130Z,97473.47
2019-03-17T02:28:16.685Z,97474.19
2019-03-17T02:29:20.309Z,97479.34
2019-03-17T02:30:24.004Z,97481.34
2019-03-17T02:31:27.549Z,97478.47
2019-03-17T02:32:31.189Z,97486.41
2019-03-17T02:33:34.757Z,97479.93
2019-03-17T02:34:38.400Z,97482.52
2019-03-17T02:35:42.034Z,97478.19
2019-03-17T02:36:45.599Z,97483.52
2019-03-17T02:37:49.224Z,97481.36
2019-03-17T02:38:52.792Z,97487.61
2019-03-17T02:39:56.461Z,97484.30
2019-03-17T02:41:00.092Z,97485.86
2019-03-17T02:42:03.710Z,97489.53
2019-03-17T02:43:07.341Z,97489.97
2019-03-17T02:44:11.304Z,97492.81
2019-03-17T02:45:14.964Z,97492.14
2019-03-17T02:46:18.590Z,97494.36
2019-03-17T02:47:22.148Z,97502.87
2019-03-17T02:48:25.776Z,97499.59
2019-03-17T02:49:29.812Z,97500.06
2019-03-17T02:50:33.411Z,97500.52
2019-03-17T02:51:37.035Z,97501.52
2019-03-17T02:52:40.680Z,97502.30
2019-03-17T02:53:44.306Z,97499.58
2019-03-17T02:54:47.941Z,97505.14
2019-03-17T02:55:51.602Z,97499.39
2019-03-17T02:56:55.229Z,97504.31
2019-03-17T02:57:58.870Z,97503.80
2019-03-17T02:59:02.437Z,97505.72
2019-03-17T03:00:09.098Z,97506.34
2019-03-17T03:01:12.753Z,97514.34
2019-03-17T03:02:16.393Z,97518.94
2019-03-17T03:03:20.034Z,97521.84
2019-03-17T03:04:23.653Z,97526.02
2019-03-17T03:05:27.275Z,97523.52
2019-03-17T03:06:30.949Z,97526.67
2019-03-17T03:07:34.684Z,97527.95
2019-03-17T03:08:38.319Z,97527.95
2019-03-17T03:09:41.943Z,97522.52
2019-03-17T03:10:45.583Z,97530.43
2019-03-17T03:11:49.136Z,97528.72
2019-03-17T03:12:52.763Z,97533.14
2019-03-17T03:13:56.659Z,97528.98
2019-03-17T03:15:00.580Z,97530.31
2019-03-17T03:16:06.021Z,97527.62
2019-03-17T03:17:09.497Z,97531.29
2019-03-17T03:18:13.050Z,97532.04
2019-03-17T03:19:16.741Z,97537.07
2019-03-17T03:20:20.361Z,97529.83
2019-03-17T03:21:23.992Z,97531.68
2019-03-17T03:22:27.626Z,97529.51
2019-03-17T03:23:31.268Z,97532.30
2019-03-17T03:24:34.913Z,97534.02
2019-03-17T03:25:38.565Z,97534.05
2019-03-17T03:26:42.199Z,97540.28
2019-03-17T03:27:45.816Z,97537.42
2019-03-17T03:28:49.707Z,97540.59
2019-03-17T03:29:53.308Z,97539.42
2019-03-17T03:30:57.098Z,97539.36
2019-03-17T03:32:00.763Z,97538.80
2019-03-17T03:33:04.399Z,97536.89
2019-03-17T03:34:08.377Z,97540.82
2019-03-17T03:35:12.278Z,97540.82
2019-03-17T03:36:16.055Z,97547.34
2019-03-17T03:37:19.612Z,97546.94
2019-03-17T03:38:23.253Z,97540.41
2019-03-17T03:39:26.883Z,97542.62
2019-03-17T03:40:30.552Z,97541.34
2019-03-17T03:41:34.802Z,97539.86
2019-03-17T03:42:38.442Z,97541.39
2019-03-17T03:43:42.114Z,97540.98
2019-03-17T03:44:45.817Z,97541.45
2019-03-17T03:45:49.452Z,97541.94
2019-03-17T03:46:53.098Z,97544.80
2019-03-17T03:47:56.727Z,97537.57
2019-03-17T03:49:00.355Z,97537.57
2019-03-17T03:50:05.396Z,97537.16
2019-03-17T03:51:09.025Z,97538.91
2019-03-17T03:52:12.697Z,97543.06
2019-03-17T03:53:16.299Z,97550.15
2019-03-17T03:54:22.043Z,97546.13
2019-03-17T03:55:25.670Z,97547.23
2019-03-17T03:56:29.357Z,97549.72
2019-03-17T03:57:32.963Z,97552.14
2019-03-17T03:58:36.595Z,97554.53
2019-03-17T03:59:40.622Z,97554.76
2019-03-17T04:00:44.594Z,97554.95
2019-03-17T04:01:48.250Z,97563.19
2019-03-17T04:02:51.879Z,97564.77
2019-03-17T04:03:55.532Z,97566.42
2019-03-17T04:04:59.144Z,97567.38
2019-03-17T04:06:02.806Z,97569.61
2019-03-17T04:07:06.894Z,97568.05
2019-03-17T04:08:10.542Z,97572.83
2019-03-17T04:09:14.144Z,97573.90
2019-03-17T04:10:17.764Z,97571.50
2019-03-17T04:11:21.313Z,97575.16
2019-03-17T04:12:25.039Z,97567.41
2019-03-17T04:13:28.677Z,97571.63
2019-03-17T04:14:32.312Z,97566.53
2019-03-17T04:15:36.393Z,97568.36
2019-03-17T04:16:40.047Z,97572.31
2019-03-17T04:17:43.714Z,97568.63
2019-03-17T04:18:47.347Z,97572.42
2019-03-17T04:19:50.902Z,97571.66
2019-03-17T04:20:54.965Z,97571.14
2019-03-17T04:22:00.687Z,97567.19
2019-03-17T04:23:04.379Z,97572.80
2019-03-17T04:24:08.040Z,97569.84
2019-03-17T04:25:13.416Z,97571.09
2019-03-17T04:26:17.144Z,97572.91
2019-03-17T04:27:20.768Z,97576.38
2019-03-17T04:28:24.450Z,97576.06
2019-03-17T04:29:28.082Z,97574.16
2019-03-17T04:30:31.715Z,97574.39
2019-03-17T04:31:35.457Z,97576.25
2019-03-17T04:32:39.113Z,97579.83
2019-03-17T04:33:42.782Z,97581.19
2019-03-17T04:34:46.410Z,97583.84
2019-03-17T04:35:50.036Z,97588.09
2019-03-17T04:36:53.674Z,97589.70
2019-03-17T04:37:57.316Z,97590.45
2019-03-17T04:39:00.910Z,97592.77
2019-03-17T04:40:06.160Z,97592.46
2019-03-17T04:41:09.719Z,97596.94
2019-03-17T04:42:13.349Z,97598.49
2019-03-17T04:43:16.984Z,97596.86
2019-03-17T04:44:21.343Z,97594.20
2019-03-17T04:45:24.984Z,97591.44
2019-03-17T04:46:28.688Z,97594.13
2019-03-17T04:47:32.250Z,97598.73
2019-03-17T04:48:36.214Z,97599.33
2019-03-17T04:49:39.878Z,97596.71
2019-03-17T04:50:43.523Z,97600.16
2019-03-17T04:51:47.153Z,97599.00
2019-03-17T04:52:50.800Z,97608.23
2019-03-17T04:53:54.672Z,97606.63
2019-03-17T04:54:58.449Z,97603.36
2019-03-17T04:56:02.478Z,97602.78
2019-03-17T04:57:06.997Z,97603.99
2019-03-17T04:58:10.631Z,97596.91
2019-03-17T04:59:14.140Z,97604.69
2019-03-17T05:00:17.823Z,97604.95
2019-03-17T05:01:21.456Z,97609.52
2019-03-17T05:02:25.450Z,97610.31
2019-03-17T05:03:29.024Z,97608.11
2019-03-17T05:04:32.583Z,97612.73
2019-03-17T05:05:36.293Z,97612.11
2019-03-17T05:06:51.572Z,97611.39
2019-03-17T05:07:45.234Z,97608.37
2019-03-17T05:08:48.897Z,97608.45
2019-03-17T05:09:55.275Z,97608.72
2019-03-17T05:10:58.970Z,97607.31
2019-03-17T05:12:02.621Z,97612.94
2019-03-17T05:13:11.360Z,97616.16
2019-03-17T05:14:14.993Z,97608.56
2019-03-17T05:15:18.652Z,97612.88
2019-03-17T05:16:22.309Z,97615.57
2019-03-17T05:17:25.952Z,97613.50
2019-03-17T05:18:29.616Z,97616.72
2019-03-17T05:19:33.200Z,97617.75
2019-03-17T05:20:36.780Z,97622.24
2019-03-17T05:21:40.522Z,97623.54
2019-03-17T05:22:44.103Z,97616.70
2019-03-17T05:23:47.748Z,97625.78
2019-03-17T05:24:51.251Z,97620.14
2019-03-17T05:25:54.892Z,97618.96
2019-03-17T05:26:58.549Z,97617.79
2019-03-17T05:28:02.133Z,97620.67
2019-03-17T05:29:05.765Z,97621.48
2019-03-17T05:30:11.818Z,97623.37
2019-03-17T05:31:15.395Z,97627.42
2019-03-17T05:32:19.084Z,97623.97
2019-03-17T05:33:22.734Z,97625.53
2019-03-17T05:34:26.384Z,97627.16
2019-03-17T05:35:30.064Z,97624.77
2019-03-17T05:36:33.856Z,97624.24
2019-03-17T05:37:41.302Z,97625.10
2019-03-17T05:38:48.016Z,97624.88
2019-03-17T05:39:51.648Z,97624.63
2019-03-17T05:40:55.376Z,97621.74
2019-03-17T05:41:58.931Z,97624.69
2019-03-17T05:43:02.572Z,97633.75
2019-03-17T05:44:06.588Z,97626.60
2019-03-17T05:45:10.335Z,97631.67
2019-03-17T05:46:13.972Z,97630.34
2019-03-17T05:47:17.603Z,97635.12
2019-03-17T05:48:21.237Z,97634.34
2019-03-17T05:49:24.874Z,97638.06
2019-03-17T05:50:30.557Z,97638.37
2019-03-17T05:51:34.207Z,97646.59
2019-03-17T05:52:37.847Z,97641.27
2019-03-17T05:53:41.486Z,97642.84
2019-03-17T05:54:45.125Z,97637.30
2019-03-17T05:55:48.792Z,97634.64
2019-03-17T05:56:52.369Z,97635.95
2019-03-17T05:57:56.016Z,97633.55
2019-03-17T05:58:59.736Z,97631.45
2019-03-17T06:00:04.559Z,97637.80
2019-03-17T06:01:08.243Z,97639.91
2019-03-17T06:02:11.942Z,97643.06
2019-03-17T06:03:15.678Z,97645.72
2019-03-17T06:04:19.732Z,97642.80
2019-03-17T06:05:23.379Z,97649.69
2019-03-17T06:06:27.059Z,97651.54
2019-03-17T06:07:30.716Z,97644.34
2019-03-17T06:08:34.288Z,97653.11
2019-03-17T06:09:37.963Z,97651.22
2019-03-17T06:10:42.515Z,97646.70
2019-03-17T06:11:46.341Z,97652.81
2019-03-17T06:12:50.494Z,97646.15
2019-03-17T06:13:54.135Z,97641.10
2019-03-17T06:14:57.769Z,97641.07
2019-03-17T06:16:01.428Z,97647.63
2019-03-17T06:17:05.188Z,97641.48
2019-03-17T06:18:09.173Z,97640.41
2019-03-17T06:19:13.702Z,97639.02
2019-03-17T06:20:17.418Z,97647.98
2019-03-17T06:21:21.046Z,97639.92
2019-03-17T06:22:24.704Z,97646.02
2019-03-17T06:23:28.357Z,97639.63
2019-03-17T06:24:31.997Z,97641.48
2019-03-17T06:25:35.712Z,97636.17
2019-03-17T06:26:39.354Z,97636.84
2019-03-17T06:27:43.029Z,97640.82
2019-03-17T06:28:46.673Z,97644.28
2019-03-17T06:29:50.300Z,97636.84
2019-03-17T06:30:53.935Z,97637.63
2019-03-17T06:31:59.925Z,97638.12
2019-03-17T06:33:03.560Z,97642.02
2019-03-17T06:34:07.203Z,97649.11
2019-03-17T06:35:10.860Z,97645.08
2019-03-17T06:36:14.574Z,97645.33
2019-03-17T06:37:30.221Z,97648.25
2019-03-17T06:38:23.972Z,97644.73
2019-03-17T06:39:27.582Z,97643.55
2019-03-17T06:40:31.266Z,97641.11
2019-03-17T06:41:36.344Z,97635.67
2019-03-17T06:42:40.358Z,97642.16
2019-03-17T06:43:43.993Z,97642.56
2019-03-17T06:44:47.626Z,97639.13
2019-03-17T06:45:51.641Z,97640.03
2019-03-17T06:46:55.211Z,97645.36
2019-03-17T06:47:58.853Z,97637.41
2019-03-17T06:49:02.518Z,97635.19
2019-03-17T06:50:09.064Z,97640.29
2019-03-17T06:51:12.701Z,97635.63
2019-03-17T06:52:16.342Z,97630.36
2019-03-17T06:53:19.989Z,97629.29
2019-03-17T06:54:23.652Z,97628.40
2019-03-17T06:55:27.419Z,97634.25
2019-03-17T06:56:32.989Z,97627.28
2019-03-17T06:57:40.967Z,97634.95
2019-03-17T06:58:44.655Z,97629.03
2019-03-17T06:59:48.517Z,97633.41
2019-03-17T07:00:52.334Z,97627.69
2019-03-17T07:01:57.098Z,97626.97
2019-03-17T07:03:00.929Z,97627.56
2019-03-17T07:04:04.533Z,97623.58
2019-03-17T07:05:09.252Z,97621.38
2019-03-17T07:06:12.876Z,97623.45
2019-03-17T07:07:16.520Z,97622.23
2019-03-17T07:08:20.175Z,97617.85
2019-03-17T07:09:23.745Z,97619.18
2019-03-17T07:10:27.424Z,97626.61
2019-03-17T07:11:30.993Z,97624.52
2019-03-17T07:12:34.634Z,97623.89
2019-03-17T07:13:38.271Z,97623.95
2019-03-17T07:14:41.953Z,97625.47
2019-03-17T07:15:45.616Z,97616.92
2019-03-17T07:16:49.255Z,97616.92
2019-03-17T07:17:52.896Z,97623.79
2019-03-17T07:18:56.531Z,97622.78
2019-03-17T07:20:00.877Z,97620.49
2019-03-17T07:21:04.702Z,97622.32
2019-03-17T07:22:08.450Z,97624.91
2019-03-17T07:23:13.136Z,97624.20
2019-03-17T07:24:17.079Z,97624.20
2019-03-17T07:25:20.881Z,97622.40
2019-03-17T07:26:26.110Z,97615.82
2019-03-17T07:27:29.679Z,97621.62
2019-03-17T07:28:33.317Z,97621.62
2019-03-17T07:29:37.049Z,97617.30
2019-03-17T07:30:40.880Z,97617.30
2019-03-17T07:31:44.639Z,97619.02
2019-03-17T07:32:48.425Z,97613.04
2019-03-17T07:33:52.062Z,97612.09
2019-03-17T07:34:55.697Z,97617.97
2019-03-17T07:35:59.416Z,97623.30
2019-03-17T07:37:03.213Z,97626.84
2019-03-17T07:38:06.868Z,97622.95
2019-03-17T07:39:12.162Z,97619.22
2019-03-17T07:40:19.469Z,97619.22
2019-03-17T07:41:23.215Z,97617.23
2019-03-17T07:42:27.180Z,97619.29
2019-03-17T07:43:30.843Z,97612.03
2019-03-17T07:44:34.490Z,97614.14
2019-03-17T07:45:39.717Z,97618.18
2019-03-17T07:46:43.430Z,97610.75
2019-03-17T07:47:47.249Z,97615.02
2019-03-17T07:48:51.333Z,97612.66
2019-03-17T07:49:54.987Z,97602.89
2019-03-17T07:50:58.654Z,97602.89
2019-03-17T07:52:02.300Z,97606.70
2019-03-17T07:53:06.714Z,97598.66
2019-03-17T07:54:10.824Z,97598.66
2019-03-17T07:55:14.611Z,97597.66
2019-03-17T07:56:18.434Z,97597.38
2019-03-17T07:57:22.198Z,97597.00
2019-03-17T07:58:26.207Z,97599.48
2019-03-17T07:59:30.345Z,97591.48
2019-03-17T08:00:34.155Z,97595.52
2019-03-17T08:01:38.078Z,97589.38
2019-03-17T08:02:41.966Z,97588.16
2019-03-17T08:03:45.982Z,97590.23
2019-03-17T08:04:51.148Z,97586.31
2019-03-17T08:05:56.594Z,97584.17
2019-03-17T08:07:00.264Z,97588.61
2019-03-17T08:08:10.005Z,97580.38
2019-03-17T08:09:14.637Z,97584.36
2019-03-17T08:10:19.642Z,97583.47
2019-03-17T08:11:29.015Z,97584.05
2019-03-17T08:12:32.692Z,97583.45
2019-03-17T08:13:36.402Z,97584.87
2019-03-17T08:14:40.043Z,97580.27
2019-03-17T08:15:43.671Z,97582.12
2019-03-17T08:16:47.311Z,97581.76
2019-03-17T08:17:50.990Z,97575.07
2019-03-17T08:18:54.617Z,97575.47
2019-03-17T08:19:58.261Z,97579.27
2019-03-17T08:21:01.894Z,97576.67
2019-03-17T08:22:06.019Z,97581.88
2019-03-17T08:23:09.686Z,97574.62
2019-03-17T08:24:13.414Z,97570.54
2019-03-17T08:25:29.399Z,97571.22
2019-03-17T08:26:33.167Z,97568.36
2019-03-17T08:27:36.810Z,97572.56
2019-03-17T08:28:40.484Z,97562.69
2019-03-17T08:29:44.239Z,97562.26
2019-03-17T08:30:53.182Z,97554.78
2019-03-17T08:31:53.433Z,97551.19
2019-03-17T08:32:57.130Z,97553.13
2019-03-17T08:34:00.804Z,97552.37
2019-03-17T08:35:06.046Z,97549.39
2019-03-17T08:36:09.773Z,97550.24
2019-03-17T08:37:22.640Z,97547.77
2019-03-17T08:38:26.607Z,97542.32
2019-03-17T08:39:30.385Z,97541.23
2019-03-17T08:40:34.134Z,97542.13
2019-03-17T08:41:37.892Z,97535.74
2019-03-17T08:42:42.300Z,97534.55
2019-03-17T08:43:54.141Z,97535.52
2019-03-17T08:44:53.063Z,97537.91
2019-03-17T08:45:56.598Z,97532.69
2019-03-17T08:47:00.228Z,97538.38
2019-03-17T08:48:03.867Z,97535.64
2019-03-17T08:49:07.456Z,97536.81
2019-03-17T08:50:13.376Z,97535.41
2019-03-17T08:51:17.055Z,97534.11
2019-03-17T08:52:22.215Z,97533.23
2019-03-17T08:53:25.846Z,97527.64
2019-03-17T08:54:32.816Z,97534.66
2019-03-17T08:55:36.461Z,97523.98
2019-03-17T08:56:40.177Z,97522.36
2019-03-17T08:57:43.834Z,97518.84
2019-03-17T08:58:51.403Z,97524.27
2019-03-17T08:59:58.932Z,97505.00
2019-03-17T09:01:02.702Z,97512.09
2019-03-17T09:02:06.332Z,97508.48
2019-03-17T09:03:10.390Z,97502.36
2019-03-17T09:04:14.021Z,97503.28
2019-03-17T09:05:18.008Z,97507.32
2019-03-17T09:06:21.858Z,97499.61
2019-03-17T09:07:27.750Z,97492.34
2019-03-17T09:08:35.243Z,97493.28
2019-03-17T09:09:36.429Z,97490.83
2019-03-17T09:10:40.068Z,97490.83
2019-03-17T09:11:43.761Z,97486.99
2019-03-17T09:12:50.410Z,97489.29
2019-03-17T09:13:54.589Z,97490.47
2019-03-17T09:14:58.166Z,97488.97
2019-03-17T09:16:01.849Z,97481.53
2019-03-17T09:17:14.703Z,97483.64
2019-03-17T09:18:19.741Z,97474.75
2019-03-17T09:19:26.638Z,97474.09
2019-03-17T09:20:33.359Z,97474.60
2019-03-17T09:21:38.673Z,97475.44
2019-03-17T09:22:42.212Z,97468.73
2019-03-17T09:23:47.422Z,97469.06
2019-03-17T09:24:51.168Z,97462.78
2019-03-17T09:25:54.796Z,97466.73
2019-03-17T09:26:58.447Z,97466.28
2019-03-17T09:28:03.831Z,97463.34
2019-03-17T09:29:07.638Z,97461.61
2019-03-17T09:30:14.078Z,97459.32
2019-03-17T09:31:17.641Z,97462.64
2019-03-17T09:32:21.232Z,97461.06
2019-03-17T09:33:24.867Z,97454.67
2019-03-17T09:34:28.695Z,97448.97
2019-03-17T09:35:32.388Z,97454.01
2019-03-17T09:36:35.988Z,97452.02
2019-03-17T09:37:39.624Z,97454.17
2019-03-17T09:38:47.497Z,97455.37
2019-03-17T09:39:48.766Z,97453.67
2019-03-17T09:40:52.856Z,97448.36
2019-03-17T09:41:56.591Z,97451.50
2019-03-17T09:43:00.391Z,97452.92
2019-03-17T09:44:04.546Z,97446.13
2019-03-17T09:45:10.664Z,97439.25
2019-03-17T09:46:14.775Z,97443.85
2019-03-17T09:47:19.461Z,97443.06
2019-03-17T09:48:23.040Z,97438.73
2019-03-17T09:49:26.676Z,97436.82
2019-03-17T09:50:32.129Z,97437.70
2019-03-17T09:51:35.803Z,97430.73
2019-03-17T09:52:42.384Z,97429.46
2019-03-17T09:53:45.888Z,97425.05
2019-03-17T09:54:49.845Z,97431.17
2019-03-17T09:55:53.480Z,97422.67
2019-03-17T09:56:57.085Z,97419.42
2019-03-17T09:58:00.660Z,97417.17
2019-03-17T09:59:04.289Z,97413.42
2019-03-17T10:00:21.228Z,97408.07
2019-03-17T10:01:24.867Z,97407.48
2019-03-17T10:02:28.530Z,97410.72
2019-03-17T10:03:32.170Z,97409.76
2019-03-17T10:04:35.721Z,97403.58
2019-03-17T10:05:39.352Z,97406.61
2019-03-17T10:06:42.985Z,97404.53
2019-03-17T10:07:46.944Z,97404.97
2019-03-17T10:08:59.487Z,97405.07
2019-03-17T10:09:55.785Z,97407.02
2019-03-17T10:10:59.485Z,97397.09
2019-03-17T10:12:03.122Z,97402.91
2019-03-17T10:13:07.178Z,97403.93
2019-03-17T10:14:10.772Z,97397.30
2019-03-17T10:15:15.626Z,97391.66
2019-03-17T10:16:19.256Z,97391.05
2019-03-17T10:17:24.701Z,97394.09
2019-03-17T10:18:28.748Z,97392.44
2019-03-17T10:19:32.375Z,97387.58
2019-03-17T10:20:36.411Z,97386.94
2019-03-17T10:21:44.159Z,97389.23
2019-03-17T10:22:47.807Z,97384.95
2019-03-17T10:23:51.441Z,97383.27
2019-03-17T10:24:55.090Z,97380.98
2019-03-17T10:25:59.350Z,97381.80
2019-03-17T10:27:03.062Z,97380.61
2019-03-17T10:28:06.706Z,97379.52
2019-03-17T10:29:10.270Z,97375.53
2019-03-17T10:30:18.394Z,97377.17
2019-03-17T10:31:22.039Z,97367.95
2019-03-17T10:32:25.680Z,97368.73
2019-03-17T10:33:29.299Z,97368.95
2019-03-17T10:34:32.941Z,97366.80
2019-03-17T10:35:36.574Z,97368.31
2019-03-17T10:36:42.355Z,97363.22
2019-03-17T10:37:45.923Z,97361.54
2019-03-17T10:38:49.568Z,97352.48
2019-03-17T10:39:53.319Z,97358.69
2019-03-17T10:40:56.928Z,97361.14
2019-03-17T10:42:03.134Z,97359.89
2019-03-17T10:43:06.787Z,97355.38
2019-03-17T10:44:10.471Z,97359.16
2019-03-17T10:45:14.429Z,97347.53
2019-03-17T10:46:18.026Z,97345.97
2019-03-17T10:47:21.670Z,97344.41
2019-03-17T10:48:25.307Z,97338.23
2019-03-17T10:49:28.967Z,97340.75
2019-03-17T10:50:32.604Z,97346.18
2019-03-17T10:51:36.250Z,97348.30
2019-03-17T10:52:39.887Z,97341.31
2019-03-17T10:53:43.519Z,97338.70
2019-03-17T10:54:47.185Z,97333.82
2019-03-17T10:55:50.920Z,97333.37
2019-03-17T10:56:54.560Z,97327.73
2019-03-17T10:57:58.194Z,97329.78
2019-03-17T10:59:02.007Z,97325.55
2019-03-17T11:00:08.588Z,97328.02
2019-03-17T11:01:12.233Z,97320.66
2019-03-17T11:02:15.953Z,97320.98
2019-03-17T11:03:19.608Z,97321.38
2019-03-17T11:04:39.540Z,97318.87
2019-03-17T11:07:43.181Z,97316.53
2019-03-17T11:13:53.695Z,97293.94
2019-03-17T11:14:57.326Z,97304.34
2019-03-17T11:16:00.968Z,97296.45
2019-03-17T11:17:04.769Z,97297.63
2019-03-17T11:18:08.477Z,97297.35
2019-03-17T11:19:12.023Z,97289.48
2019-03-17T11:20:16.062Z,97283.28
2019-03-17T11:21:19.725Z,97287.89
2019-03-17T11:22:25.417Z,97279.95
2019-03-17T11:23:28.848Z,97278.33
2019-03-17T11:24:32.466Z,97271.55
2019-03-17T11:25:36.107Z,97266.63
2019-03-17T11:26:39.742Z,97267.27
2019-03-17T11:27:43.378Z,97268.45
2019-03-17T11:28:47.044Z,97267.17
2019-03-17T11:29:50.683Z,97265.83
2019-03-17T11:30:58.576Z,97255.19
2019-03-17T11:32:02.345Z,97257.00
2019-03-17T11:33:05.951Z,97254.13
2019-03-17T11:34:09.688Z,97258.69
2019-03-17T11:35:13.324Z,97252.09
2019-03-17T11:36:18.950Z,97252.30
2019-03-17T11:37:23.625Z,97251.50
2019-03-17T11:38:27.549Z,97259.31
2019-03-17T11:39:37.857Z,97249.98
2019-03-17T11:40:36.546Z,97246.59
2019-03-17T11:41:40.193Z,97241.38
2019-03-17T11:42:43.812Z,97244.34
2019-03-17T11:43:47.461Z,97241.39
2019-03-17T11:44:51.246Z,97230.86
2019-03-17T11:45:54.850Z,97235.30
2019-03-17T11:46:58.560Z,97227.48
2019-03-17T11:48:02.195Z,97230.23
2019-03-17T11:49:05.852Z,97225.60
2019-03-17T11:50:14.637Z,97224.97
2019-03-17T11:51:18.267Z,97221.16
2019-03-17T11:52:21.958Z,97223.08
2019-03-17T11:53:25.680Z,97215.50
2019-03-17T11:54:29.312Z,97219.78
2019-03-17T11:55:35.017Z,97211.97
2019-03-17T11:56:38.712Z,97209.75
2019-03-17T11:57:42.958Z,97212.92
2019-03-17T11:58:46.650Z,97209.25
2019-03-17T11:59:50.303Z,97208.52
2019-03-17T12:00:53.981Z,97205.46
2019-03-17T12:01:57.991Z,97209.66
2019-03-17T12:03:02.059Z,97206.93
2019-03-17T12:04:05.693Z,97199.11
2019-03-17T12:05:09.712Z,97196.73
2019-03-17T12:06:13.417Z,97196.51
2019-03-17T12:07:17.068Z,97192.64
2019-03-17T12:08:21.169Z,97195.91
2019-03-17T12:09:29.388Z,97191.08
2019-03-17T12:10:30.250Z,97194.42
2019-03-17T12:11:33.941Z,97185.48
2019-03-17T12:12:37.890Z,97185.08
2019-03-17T12:13:41.635Z,97180.20
2019-03-17T12:14:45.232Z,97176.61
2019-03-17T12:15:48.871Z,97170.52
2019-03-17T12:16:52.523Z,97176.68
2019-03-17T12:17:56.165Z,97175.55
2019-03-17T12:19:00.183Z,97170.89
2019-03-17T12:20:05.271Z,97166.37
2019-03-17T12:21:08.980Z,97165.66
2019-03-17T12:22:12.962Z,97168.46
2019-03-17T12:23:16.649Z,97165.51
2019-03-17T12:24:21.243Z,97163.91
2019-03-17T12:25:24.873Z,97160.18
2019-03-17T12:26:28.522Z,97162.59
2019-03-17T12:27:32.267Z,97158.81
2019-03-17T12:28:35.898Z,97159.19
2019-03-17T12:29:39.550Z,97156.24
2019-03-17T12:30:43.236Z,97158.20
2019-03-17T12:31:46.879Z,97162.52
2019-03-17T12:32:51.549Z,97155.24
2019-03-17T12:33:56.750Z,97157.27
2019-03-17T12:35:00.436Z,97153.52
2019-03-17T12:36:05.473Z,97155.42
2019-03-17T12:37:09.484Z,97150.35
2019-03-17T12:38:13.131Z,97158.47
2019-03-17T12:39:16.766Z,97145.72